Time;durP1;ratioP1;P1;durP2;ratioP2;P2;SDS_P1;SDS_P2;PMS_P1;PMS_P2;Temp;Humidity;BMP_temperature;BMP_pressure;BME280_temperature;BME280_humidity;BME280_pressure;Samples;Min_cycle;Max_cycle;Signal;HPM_P1;HPM_P2
2023/01/05 00:01:05;;;;;;;0.10;0.10;;;;;;;14.95;44.42;95915.22;4991072;28;20585;-57
2023/01/05 00:03:33;;;;;;;1.10;1.00;;;;;;;14.94;45.49;95918.91;4991525;28;20499;-56
2023/01/05 00:06:02;;;;;;;0.43;0.43;;;;;;;14.76;45.74;95914.06;4989826;28;20446;-57
2023/01/05 00:08:28;;;;;;;1.80;1.37;;;;;;;14.90;44.94;95917.84;4990997;28;20457;-55
2023/01/05 00:22:31;;;;;;;1.50;1.10;;;;;;;14.80;44.90;95907.22;4978214;28;20464;-57
2023/01/05 00:25:08;;;;;;;0.00;0.00;;;;;;;14.72;45.33;95907.75;4990309;28;20445;-56
2023/01/05 00:27:40;;;;;;;1.60;1.07;;;;;;;14.73;45.14;95904.03;4990665;28;20903;-55
2023/01/05 00:30:09;;;;;;;0.93;0.93;;;;;;;15.01;45.09;95902.84;4990082;28;20493;-58
2023/01/05 00:32:36;;;;;;;0.87;0.80;;;;;;;14.78;44.81;95898.78;4990462;28;20442;-57
2023/01/05 00:35:04;;;;;;;1.27;1.13;;;;;;;14.97;44.75;95894.66;4990148;28;20580;-59
2023/01/05 00:37:34;;;;;;;0.60;0.60;;;;;;;14.53;45.40;95898.66;4990521;28;20826;-57
2023/01/05 00:40:01;;;;;;;6.23;3.10;;;;;;;14.43;46.14;95890.69;4969886;28;20513;-58
2023/01/05 00:42:28;;;;;;;1.90;1.00;;;;;;;14.83;45.19;95896.19;4983694;28;20529;-55
2023/01/05 00:44:54;;;;;;;1.37;0.60;;;;;;;14.27;46.03;95891.63;4987945;28;20448;-55
2023/01/05 00:47:21;;;;;;;0.20;0.20;;;;;;;13.67;47.29;95896.38;4975762;28;20458;-55
2023/01/05 00:49:48;;;;;;;4.47;1.87;;;;;;;14.60;45.67;95893.94;4989847;28;20537;-55
2023/01/05 00:52:15;;;;;;;0.63;0.53;;;;;;;14.83;44.97;95893.53;4990055;28;20936;-56
2023/01/05 00:54:42;;;;;;;0.63;0.60;;;;;;;15.10;44.52;95880.97;4989558;28;20583;-56
2023/01/05 00:57:12;;;;;;;0.23;0.23;;;;;;;15.36;43.92;95888.97;4976228;28;20529;-57
2023/01/05 00:59:40;;;;;;;1.30;1.20;;;;;;;15.39;43.97;95888.44;4989689;28;20817;-57
2023/01/05 01:02:06;;;;;;;1.33;1.03;;;;;;;15.45;43.71;95892.72;4989921;28;20438;-54
2023/01/05 01:04:33;;;;;;;0.10;0.10;;;;;;;15.42;43.83;95890.59;4989362;28;20448;-53
2023/01/05 01:07:03;;;;;;;0.43;0.43;;;;;;;15.39;43.70;95896.34;4975240;28;20554;-58
2023/01/05 01:09:31;;;;;;;0.27;0.27;;;;;;;15.33;44.11;95894.78;4979675;28;20843;-55
2023/01/05 01:11:58;;;;;;;1.00;0.53;;;;;;;15.49;43.78;95896.44;4985187;28;20941;-55
2023/01/05 01:14:25;;;;;;;0.10;0.10;;;;;;;15.57;43.88;95891.41;4988967;28;20492;-57
2023/01/05 01:16:52;;;;;;;0.10;0.10;;;;;;;15.41;43.86;95891.66;4989737;28;20438;-55
2023/01/05 01:19:22;;;;;;;3.00;1.13;;;;;;;15.54;43.92;95886.66;4989332;28;20850;-58
2023/01/05 01:21:49;;;;;;;0.47;0.47;;;;;;;15.69;43.31;95883.25;4989157;28;20452;-56
2023/01/05 01:24:18;;;;;;;2.00;1.27;;;;;;;15.61;43.29;95883.75;4989163;28;20450;-56
2023/01/05 01:26:45;;;;;;;0.50;0.50;;;;;;;15.59;43.10;95877.94;4988021;28;20442;-57
2023/01/05 01:29:13;;;;;;;0.70;0.70;;;;;;;15.69;43.57;95867.41;4987615;28;20462;-53
2023/01/05 01:31:39;;;;;;;0.17;0.17;;;;;;;15.54;43.87;95870.00;4989483;28;21035;-57
2023/01/05 01:34:06;;;;;;;1.30;0.87;;;;;;;15.54;43.46;95854.97;4988698;28;20477;-55
2023/01/05 01:36:34;;;;;;;0.43;0.40;;;;;;;15.48;43.67;95860.47;4987185;28;20545;-56
2023/01/05 01:39:01;;;;;;;0.40;0.40;;;;;;;15.37;43.99;95858.84;4989439;28;21010;-61
2023/01/05 01:41:32;;;;;;;1.20;1.10;;;;;;;15.22;43.55;95841.94;4987471;28;20502;-57
2023/01/05 01:44:00;;;;;;;1.90;1.80;;;;;;;14.15;47.04;95851.47;4989257;28;20430;-58
2023/01/05 01:46:27;;;;;;;0.60;0.50;;;;;;;14.19;46.14;95845.44;4987466;28;20487;-53
2023/01/05 01:49:01;;;;;;;0.23;0.23;;;;;;;15.05;44.94;95840.56;4989264;28;20492;-57
2023/01/05 01:51:43;;;;;;;1.03;0.93;;;;;;;15.16;44.68;95847.47;4976918;28;20458;-56
2023/01/05 01:54:14;;;;;;;0.77;0.77;;;;;;;15.25;43.93;95836.13;4987748;28;20571;-57
2023/01/05 01:56:46;;;;;;;0.83;0.83;;;;;;;15.14;44.52;95833.72;4989128;28;20496;-55
2023/01/05 01:59:13;;;;;;;4.80;1.33;;;;;;;15.36;43.96;95825.59;4987765;28;20953;-56
2023/01/05 02:01:40;;;;;;;0.60;0.60;;;;;;;15.38;43.92;95812.91;4987956;28;20865;-58
2023/01/05 02:04:08;;;;;;;0.63;0.63;;;;;;;15.42;43.59;95814.78;4987957;28;20454;-58
2023/01/05 02:06:36;;;;;;;0.63;0.63;;;;;;;15.32;43.96;95795.47;4987774;28;20499;-57
2023/01/05 02:09:05;;;;;;;0.30;0.30;;;;;;;15.52;43.84;95809.53;4987487;28;20464;-54
2023/01/05 02:11:59;;;;;;;1.13;0.63;;;;;;;15.53;43.57;95805.03;4987718;28;20549;-56
2023/01/05 02:14:29;;;;;;;0.67;0.60;;;;;;;15.46;43.50;95802.63;4968816;28;20512;-54
2023/01/05 02:17:19;;;;;;;1.23;1.17;;;;;;;15.48;43.25;95810.28;4968499;28;20534;-59
2023/01/05 02:19:47;;;;;;;0.60;0.40;;;;;;;15.35;43.21;95797.56;4984716;28;20591;-50
2023/01/05 02:22:45;;;;;;;2.73;1.90;;;;;;;15.46;43.22;95791.28;4987785;28;20828;-51
2023/01/05 02:25:35;;;;;;;1.80;1.23;;;;;;;15.29;43.53;95794.13;4968469;28;20447;-55
2023/01/05 02:28:17;;;;;;;0.20;0.20;;;;;;;15.38;43.42;95792.59;4984865;28;20437;-55
2023/01/05 02:31:01;;;;;;;1.57;1.47;;;;;;;15.52;43.48;95788.38;4975584;28;20556;-57
2023/01/05 02:33:37;;;;;;;2.53;1.60;;;;;;;15.35;43.14;95787.00;4968300;28;20551;-55
2023/01/05 02:36:35;;;;;;;0.47;0.47;;;;;;;15.30;43.32;95794.94;4969715;28;20451;-53
2023/01/05 02:39:23;;;;;;;2.30;1.70;;;;;;;15.34;43.67;95796.00;4988600;28;20480;-59
2023/01/05 02:41:54;;;;;;;1.90;1.37;;;;;;;15.45;43.07;95787.88;4988933;28;20444;-58
2023/01/05 02:44:28;;;;;;;1.90;1.30;;;;;;;15.46;43.35;95783.34;5002714;28;20445;-56
2023/01/05 02:47:05;;;;;;;0.40;0.40;;;;;;;15.40;43.74;95779.13;4990284;28;20460;-53
2023/01/05 02:49:38;;;;;;;0.27;0.27;;;;;;;15.46;43.45;95793.91;4992078;28;20453;-56
2023/01/05 02:52:08;;;;;;;0.30;0.30;;;;;;;15.43;43.67;95783.88;4990975;28;20453;-58
2023/01/05 02:54:48;;;;;;;0.33;0.33;;;;;;;15.39;43.83;95777.50;4979713;28;20477;-58
2023/01/05 02:57:45;;;;;;;0.33;0.33;;;;;;;15.21;43.86;95769.06;4987754;28;20859;-52
2023/01/05 03:00:10;;;;;;;1.33;0.90;;;;;;;15.43;43.23;95765.41;4971057;28;20516;-56
2023/01/05 03:02:39;;;;;;;0.60;0.60;;;;;;;15.39;43.99;95772.22;4990449;28;20520;-56
2023/01/05 03:05:20;;;;;;;0.67;0.67;;;;;;;15.32;43.93;95756.66;4990208;28;20449;-59
2023/01/05 03:07:50;;;;;;;0.63;0.63;;;;;;;15.39;44.02;95764.31;4983390;28;20500;-57
2023/01/05 03:16:00;;;;;;;1.10;1.10;;;;;;;15.43;43.95;95746.91;4970565;28;20573;-54
2023/01/05 03:18:30;;;;;;;0.83;0.83;;;;;;;15.54;43.42;95745.84;4973403;28;20488;-52
2023/01/05 03:20:59;;;;;;;0.87;0.83;;;;;;;15.66;43.18;95735.78;4991471;28;20521;-57
2023/01/05 03:38:01;;;;;;;1.93;1.80;;;;;;;15.10;43.80;95727.88;4956118;28;20446;-57
2023/01/05 03:40:32;;;;;;;2.23;1.73;;;;;;;14.97;44.72;95717.81;4970396;28;20501;-55
2023/01/05 03:43:00;;;;;;;0.50;0.50;;;;;;;15.04;43.82;95710.44;4970821;28;20442;-56
2023/01/05 03:45:35;;;;;;;0.77;0.77;;;;;;;15.08;43.65;95719.41;4958885;28;20448;-58
2023/01/05 03:48:02;;;;;;;1.13;1.03;;;;;;;15.21;43.85;95713.63;4951518;28;20443;-57
2023/01/05 03:50:30;;;;;;;1.60;1.30;;;;;;;15.19;44.04;95714.94;4967152;28;20452;-59
2023/01/05 03:52:58;;;;;;;0.63;0.63;;;;;;;15.25;44.11;95714.66;4967404;28;20440;-54
2023/01/05 03:55:28;;;;;;;0.40;0.40;;;;;;;15.17;44.08;95717.84;4951387;28;20507;-50
2023/01/05 03:57:55;;;;;;;0.70;0.70;;;;;;;15.30;43.60;95726.28;4969811;28;20446;-54
2023/01/05 04:00:23;;;;;;;3.50;1.40;;;;;;;15.33;43.43;95715.22;4969544;28;20474;-56
2023/01/05 04:02:58;;;;;;;2.53;2.30;;;;;;;15.21;43.57;95703.06;4955512;28;20857;-56
2023/01/05 04:05:25;;;;;;;3.87;3.23;;;;;;;15.14;44.07;95712.28;4965997;28;20455;-56
2023/01/05 04:07:52;;;;;;;3.23;1.90;;;;;;;15.17;44.62;95707.28;4971669;28;20446;-54
2023/01/05 04:10:20;;;;;;;1.83;1.73;;;;;;;15.18;44.01;95693.00;4956800;28;20871;-58
2023/01/05 04:12:48;;;;;;;1.73;1.47;;;;;;;15.12;43.92;95704.66;4961477;28;20515;-52
2023/01/05 04:15:17;;;;;;;3.80;0.80;;;;;;;14.98;44.58;95703.56;4952747;28;20598;-57
2023/01/05 04:17:44;;;;;;;1.80;1.67;;;;;;;15.08;44.23;95698.31;4970487;28;20489;-57
2023/01/05 04:20:12;;;;;;;3.30;1.10;;;;;;;14.64;45.71;95701.66;4969669;28;20533;-57
2023/01/05 04:22:39;;;;;;;2.37;2.10;;;;;;;15.05;44.33;95693.53;4969877;28;20492;-57
2023/01/05 04:25:08;;;;;;;0.97;0.90;;;;;;;15.32;44.19;95692.47;4951591;28;20741;-54
2023/01/05 04:27:35;;;;;;;1.53;0.80;;;;;;;15.23;44.28;95695.66;4950653;28;20444;-57
2023/01/05 04:30:05;;;;;;;1.40;0.63;;;;;;;15.36;43.77;95688.25;4957925;28;20997;-56
2023/01/05 04:32:32;;;;;;;2.57;2.23;;;;;;;15.17;44.43;95686.16;4983901;28;20976;-56
2023/01/05 04:35:00;;;;;;;1.90;1.77;;;;;;;15.44;44.03;95679.84;4972424;28;21007;-57
2023/01/05 04:37:38;;;;;;;0.20;0.20;;;;;;;15.30;43.92;95689.31;4984535;28;20449;-56
2023/01/05 04:40:06;;;;;;;4.40;3.23;;;;;;;15.14;43.98;95681.38;4975106;28;20450;-52
2023/01/05 04:42:41;;;;;;;6.13;2.60;;;;;;;14.51;44.91;95691.59;4989227;28;20461;-54
2023/01/05 04:45:09;;;;;;;0.17;0.17;;;;;;;14.91;44.81;95697.75;4988025;28;20968;-57
2023/01/05 04:47:36;;;;;;;0.70;0.70;;;;;;;14.95;44.60;95692.75;4979682;28;20431;-54
2023/01/05 04:50:04;;;;;;;2.17;2.07;;;;;;;14.89;44.21;95693.81;4968997;28;20474;-57
2023/01/05 04:52:31;;;;;;;1.10;1.00;;;;;;;15.00;44.30;95695.38;4981204;28;20836;-54
2023/01/05 04:54:58;;;;;;;1.13;0.90;;;;;;;14.98;44.09;95695.63;4988185;28;20560;-53
2023/01/05 04:57:26;;;;;;;1.17;1.07;;;;;;;15.09;43.88;95697.22;4969708;28;20521;-57
2023/01/05 04:59:53;;;;;;;0.33;0.33;;;;;;;14.74;44.37;95702.50;4970945;28;20475;-57
2023/01/05 05:02:22;;;;;;;0.97;0.97;;;;;;;14.71;44.04;95710.09;4986769;28;20453;-57
2023/01/05 05:04:50;;;;;;;0.40;0.40;;;;;;;14.95;43.89;95714.66;4988040;28;20528;-57
2023/01/05 05:07:17;;;;;;;0.77;0.77;;;;;;;14.96;44.47;95710.94;4977048;28;20501;-55
2023/01/05 05:09:44;;;;;;;0.80;0.80;;;;;;;15.03;43.92;95710.72;4951796;28;20819;-56
2023/01/05 05:12:12;;;;;;;0.80;0.80;;;;;;;15.08;44.30;95711.50;4982461;28;20437;-56
2023/01/05 05:14:39;;;;;;;2.13;1.93;;;;;;;15.02;44.38;95712.53;4987535;28;20506;-55
2023/01/05 05:17:06;;;;;;;0.50;0.50;;;;;;;15.01;44.20;95721.53;4988296;28;20445;-60
2023/01/05 05:19:33;;;;;;;0.77;0.77;;;;;;;14.92;44.59;95720.47;4975168;28;21164;-58
2023/01/05 05:22:00;;;;;;;0.80;0.80;;;;;;;14.84;44.15;95720.97;4988054;28;21004;-54
2023/01/05 05:24:27;;;;;;;0.43;0.43;;;;;;;15.04;43.78;95712.28;4980919;28;20443;-55
2023/01/05 05:26:56;;;;;;;0.53;0.53;;;;;;;14.92;44.06;95717.81;4984050;28;20446;-56
2023/01/05 05:29:23;;;;;;;1.53;1.43;;;;;;;15.04;44.12;95714.91;4976216;28;20834;-55
2023/01/05 05:31:50;;;;;;;0.80;0.80;;;;;;;15.18;43.39;95708.84;4989037;28;20481;-54
2023/01/05 05:34:18;;;;;;;0.77;0.77;;;;;;;12.81;47.77;95711.34;4989222;28;20527;-53
2023/01/05 05:36:44;;;;;;;1.80;1.60;;;;;;;11.40;52.05;95711.44;4989391;28;20492;-56
2023/01/05 05:39:12;;;;;;;0.53;0.50;;;;;;;11.39;51.94;95709.84;4989660;28;20442;-58
2023/01/05 05:41:39;;;;;;;3.83;1.23;;;;;;;11.57;52.32;95706.19;4985316;28;21398;-56
2023/01/05 05:44:07;;;;;;;5.90;2.13;;;;;;;11.31;53.39;95701.59;4988684;28;20507;-58
2023/01/05 05:46:34;;;;;;;1.27;1.17;;;;;;;10.93;55.17;95705.72;4988984;28;20449;-56
2023/01/05 05:49:00;;;;;;;1.17;1.17;;;;;;;10.76;53.25;95699.69;4987623;28;20450;-56
2023/01/05 05:51:27;;;;;;;0.10;0.10;;;;;;;10.72;54.56;95698.56;4987189;28;20446;-58
2023/01/05 05:53:54;;;;;;;1.48;1.38;;;;;;;11.88;52.52;95677.47;4987912;28;20301;-61
2023/01/05 05:56:21;;;;;;;1.58;1.48;;;;;;;12.27;51.00;95683.44;4987099;28;20705;-56
2023/01/05 05:58:48;;;;;;;0.20;0.20;;;;;;;12.32;51.13;95677.47;4987525;28;20198;-57
2023/01/05 06:01:19;;;;;;;0.52;0.52;;;;;;;12.84;49.20;95676.66;4988102;28;20195;-61
2023/01/05 06:03:46;;;;;;;0.52;0.52;;;;;;;12.88;48.80;95672.47;4988788;28;20199;-60
2023/01/05 06:06:13;;;;;;;2.37;2.17;;;;;;;13.06;48.76;95672.13;4989233;28;20297;-58
2023/01/05 06:08:39;;;;;;;1.40;1.38;;;;;;;12.47;49.98;95673.16;4989911;28;20487;-59
2023/01/05 06:11:07;;;;;;;0.47;0.47;;;;;;;12.90;48.69;95672.25;4988548;28;20190;-55
2023/01/05 06:13:34;;;;;;;1.27;1.02;;;;;;;11.85;51.07;95671.91;4989082;28;20298;-56
2023/01/05 06:16:01;;;;;;;4.45;4.05;;;;;;;11.29;53.45;95661.69;4988575;28;20246;-54
2023/01/05 06:18:28;;;;;;;0.77;0.70;;;;;;;11.55;52.33;95666.25;4989059;28;20206;-60
2023/01/05 06:20:55;;;;;;;1.80;0.60;;;;;;;10.48;55.14;95678.72;4990113;28;20441;-56
2023/01/05 06:23:27;;;;;;;0.30;0.30;;;;;;;11.50;52.83;95664.34;4992813;28;21021;-54
2023/01/05 06:25:54;;;;;;;0.47;0.47;;;;;;;12.34;50.67;95660.41;4992416;28;20202;-58
2023/01/05 06:28:21;;;;;;;0.50;0.50;;;;;;;12.75;49.02;95651.88;4990963;28;20803;-59
2023/01/05 06:30:47;;;;;;;2.33;1.53;;;;;;;12.98;48.32;95656.78;4990031;28;20496;-55
2023/01/05 06:33:15;;;;;;;0.70;0.70;;;;;;;13.16;47.89;95648.53;4990968;28;20469;-58
2023/01/05 06:35:42;;;;;;;4.03;3.60;;;;;;;13.08;48.52;95651.63;4990006;28;20473;-58
2023/01/05 06:38:09;;;;;;;0.60;0.60;;;;;;;13.14;48.13;95655.88;4991964;28;20457;-59
2023/01/05 06:40:39;;;;;;;0.13;0.13;;;;;;;13.21;48.03;95655.66;4992431;28;20460;-53
2023/01/05 06:43:06;;;;;;;1.20;1.13;;;;;;;13.12;48.10;95651.91;4992937;28;20537;-52
2023/01/05 06:45:33;;;;;;;0.40;0.40;;;;;;;13.29;48.25;95646.50;4992577;28;20457;-57
2023/01/05 06:47:59;;;;;;;1.33;1.23;;;;;;;13.40;47.56;95648.94;4992605;28;20800;-55
2023/01/05 06:50:26;;;;;;;0.63;0.63;;;;;;;13.38;48.15;95650.22;4991974;28;20445;-53
2023/01/05 06:52:53;;;;;;;0.63;0.52;;;;;;;12.87;48.50;95663.00;4991924;28;20454;-57
2023/01/05 06:55:20;;;;;;;1.20;1.00;;;;;;;11.84;51.31;95654.59;4991952;28;20232;-54
2023/01/05 06:57:47;;;;;;;1.17;1.17;;;;;;;12.69;50.15;95646.78;4992775;28;20468;-58
2023/01/05 07:00:15;;;;;;;6.53;1.70;;;;;;;13.11;49.06;95645.88;4991965;28;20536;-60
2023/01/05 07:02:42;;;;;;;2.87;2.60;;;;;;;12.48;50.65;95651.06;4991135;28;20504;-60
2023/01/05 07:05:09;;;;;;;1.60;1.50;;;;;;;12.14;51.70;95639.97;4992014;28;20572;-56
2023/01/05 07:07:36;;;;;;;1.07;0.97;;;;;;;13.00;49.93;95638.91;4992272;28;20488;-57
2023/01/05 07:10:04;;;;;;;0.63;0.63;;;;;;;13.01;49.25;95640.47;4991633;28;20441;-59
2023/01/05 07:12:31;;;;;;;1.27;0.80;;;;;;;13.12;49.30;95647.44;4979629;28;20450;-57
2023/01/05 07:14:57;;;;;;;2.07;1.63;;;;;;;13.34;49.19;95649.19;4991506;28;20532;-53
2023/01/05 07:17:25;;;;;;;1.77;1.67;;;;;;;13.47;48.72;95649.50;4992432;28;20537;-58
2023/01/05 07:19:51;;;;;;;2.73;2.53;;;;;;;13.54;49.03;95644.03;4991497;28;20485;-57
2023/01/05 07:22:18;;;;;;;4.20;3.53;;;;;;;13.08;49.34;95645.56;4992251;28;20492;-57
2023/01/05 07:24:45;;;;;;;6.90;4.10;;;;;;;13.31;49.30;95649.66;4991178;28;20810;-57
2023/01/05 07:27:12;;;;;;;10.60;7.70;;;;;;;13.34;49.39;95643.91;4992130;28;20450;-53
2023/01/05 07:29:38;;;;;;;5.73;2.60;;;;;;;13.32;49.14;95641.50;4991091;28;20584;-57
2023/01/05 07:32:05;;;;;;;3.20;2.93;;;;;;;13.35;48.95;95645.47;4990985;28;20685;-57
2023/01/05 07:34:32;;;;;;;9.73;4.77;;;;;;;13.37;48.63;95646.03;4991192;28;20575;-56
2023/01/05 07:36:59;;;;;;;2.57;2.47;;;;;;;13.18;48.88;95635.09;4991799;28;20482;-58
2023/01/05 07:39:26;;;;;;;2.40;2.30;;;;;;;13.18;49.25;95628.00;4991312;28;20449;-59
2023/01/05 07:41:52;;;;;;;5.13;1.77;;;;;;;13.36;48.55;95620.75;4991728;28;21019;-59
2023/01/05 07:44:23;;;;;;;9.80;3.10;;;;;;;13.44;47.76;95618.44;4990964;28;20446;-58
2023/01/05 07:46:50;;;;;;;3.53;3.13;;;;;;;13.11;48.97;95606.41;4991384;28;20544;-60
2023/01/05 07:49:17;;;;;;;2.67;2.47;;;;;;;13.16;49.79;95622.22;4991058;28;21035;-58
2023/01/05 07:51:43;;;;;;;2.73;1.43;;;;;;;13.48;48.41;95624.78;4991753;28;20454;-57
2023/01/05 07:54:10;;;;;;;2.10;1.90;;;;;;;13.14;49.51;95613.78;4989753;28;20968;-59
2023/01/05 07:56:37;;;;;;;4.03;3.47;;;;;;;13.61;48.71;95618.25;4990534;28;21049;-59
2023/01/05 07:59:04;;;;;;;1.37;1.27;;;;;;;13.80;49.08;95611.47;4991119;28;20452;-57
2023/01/05 08:01:32;;;;;;;1.83;1.73;;;;;;;13.97;48.64;95612.88;4991047;28;20445;-58
2023/01/05 08:03:59;;;;;;;4.07;1.73;;;;;;;13.29;48.48;95610.44;4990902;28;20496;-57
2023/01/05 08:06:25;;;;;;;0.67;0.67;;;;;;;13.59;48.20;95610.63;4990868;28;20545;-60
2023/01/05 08:08:52;;;;;;;2.37;2.17;;;;;;;13.94;47.50;95607.34;4991308;28;20516;-55
2023/01/05 08:11:20;;;;;;;2.97;1.97;;;;;;;13.72;47.37;95609.34;4990872;28;20465;-58
2023/01/05 08:14:01;;;;;;;4.03;1.27;;;;;;;13.86;47.49;95592.03;4991303;28;20986;-59
2023/01/05 08:16:30;;;;;;;1.63;0.67;;;;;;;14.38;46.35;95599.84;4990575;28;20555;-59
2023/01/05 08:18:58;;;;;;;2.27;2.13;;;;;;;13.25;48.50;95593.56;4978533;28;20457;-61
2023/01/05 08:21:25;;;;;;;3.00;2.10;;;;;;;14.24;47.19;95596.88;4990385;28;20480;-54
2023/01/05 08:23:53;;;;;;;2.17;1.97;;;;;;;14.35;45.81;95590.59;4990878;28;20513;-57
2023/01/05 08:26:22;;;;;;;6.03;0.90;;;;;;;14.30;46.06;95601.13;4990371;28;20519;-59
2023/01/05 08:28:50;;;;;;;0.97;0.97;;;;;;;14.36;46.26;95600.06;4991290;28;20473;-55
2023/01/05 08:31:26;;;;;;;2.73;1.63;;;;;;;14.79;45.87;95594.31;4990131;28;20500;-56
2023/01/05 08:33:58;;;;;;;0.27;0.27;;;;;;;15.37;44.01;95585.00;4990835;28;20457;-56
2023/01/05 08:36:26;;;;;;;3.30;1.63;;;;;;;15.49;44.31;95592.66;4990099;28;20485;-62
2023/01/05 08:38:54;;;;;;;0.70;0.70;;;;;;;15.65;43.92;95591.56;4991123;28;20445;-58
2023/01/05 08:41:27;;;;;;;1.57;1.47;;;;;;;15.57;43.72;95579.69;4990501;28;20854;-56
2023/01/05 08:43:56;;;;;;;0.40;0.40;;;;;;;15.86;43.28;95577.19;4990185;28;20485;-58
2023/01/05 08:46:25;;;;;;;1.27;1.17;;;;;;;16.49;42.13;95572.91;4990096;28;20448;-54
2023/01/05 08:48:55;;;;;;;1.30;1.23;;;;;;;16.51;41.93;95558.34;4990329;28;20456;-57
2023/01/05 08:51:22;;;;;;;0.70;0.70;;;;;;;16.28;41.65;95568.78;4977131;28;20458;-58
2023/01/05 08:53:49;;;;;;;1.13;1.13;;;;;;;16.62;40.71;95575.72;4990060;28;21190;-58
2023/01/05 08:56:16;;;;;;;1.80;1.70;;;;;;;15.95;41.94;95559.69;4989938;28;20536;-59
2023/01/05 08:58:43;;;;;;;2.40;1.60;;;;;;;15.63;42.39;95561.97;4990090;28;20450;-57
2023/01/05 09:01:15;;;;;;;2.93;0.70;;;;;;;14.84;43.47;95567.13;4989856;28;20506;-56
2023/01/05 09:03:43;;;;;;;1.60;1.50;;;;;;;15.91;42.31;95559.44;4989851;28;20434;-59
2023/01/05 09:06:11;;;;;;;0.50;0.50;;;;;;;15.76;42.17;95546.34;4989690;28;20518;-59
2023/01/05 09:08:40;;;;;;;1.60;1.50;;;;;;;15.67;42.47;95539.25;4990335;28;20520;-56
2023/01/05 09:11:16;;;;;;;1.70;1.60;;;;;;;15.51;42.87;95537.72;4989842;28;20896;-56
2023/01/05 09:13:55;;;;;;;3.03;0.93;;;;;;;15.35;42.43;95523.72;4989345;28;20944;-58
2023/01/05 09:16:25;;;;;;;3.50;1.57;;;;;;;14.73;44.19;95532.06;4989664;28;20599;-56
2023/01/05 09:19:12;;;;;;;2.03;1.60;;;;;;;15.13;43.81;95513.50;4978938;28;20438;-58
2023/01/05 09:21:39;;;;;;;0.90;0.90;;;;;;;14.35;44.46;95506.22;4989612;28;20445;-57
2023/01/05 09:24:11;;;;;;;2.37;1.53;;;;;;;14.88;43.82;95496.94;4989654;28;20537;-56
2023/01/05 09:26:38;;;;;;;1.57;1.47;;;;;;;14.86;44.18;95484.03;4989097;28;20800;-57
2023/01/05 09:29:05;;;;;;;1.33;1.27;;;;;;;15.57;42.85;95478.50;4989425;28;20544;-60
2023/01/05 09:31:31;;;;;;;1.43;1.33;;;;;;;15.12;43.74;95482.91;4989338;28;20445;-54
2023/01/05 09:33:59;;;;;;;0.43;0.43;;;;;;;14.86;44.32;95470.81;4989567;28;20453;-54
2023/01/05 09:36:26;;;;;;;0.27;0.27;;;;;;;15.51;43.07;95471.69;4988992;28;20548;-54
2023/01/05 09:38:55;;;;;;;2.10;1.30;;;;;;;15.70;43.23;95472.63;4990180;28;20438;-55
2023/01/05 09:41:32;;;;;;;0.73;0.73;;;;;;;16.63;41.93;95460.88;4989482;28;20448;-59
2023/01/05 09:44:10;;;;;;;0.30;0.30;;;;;;;16.30;41.79;95461.66;4989909;28;20793;-58
2023/01/05 09:46:41;;;;;;;6.13;2.50;;;;;;;16.27;41.89;95446.34;4977275;28;20583;-58
2023/01/05 09:49:18;;;;;;;1.17;1.17;;;;;;;16.63;42.15;95439.69;4989238;28;20964;-59
2023/01/05 09:51:45;;;;;;;0.80;0.77;;;;;;;16.11;40.80;95431.66;4989504;28;20818;-58
2023/01/05 09:54:17;;;;;;;2.43;2.23;;;;;;;14.78;42.58;95434.44;4989011;28;20534;-59
2023/01/05 09:56:48;;;;;;;0.50;0.50;;;;;;;15.10;42.60;95432.22;4988864;28;20521;-51
2023/01/05 09:59:42;;;;;;;1.97;1.87;;;;;;;15.08;42.27;95421.16;4987535;28;21172;-57
2023/01/05 10:02:18;;;;;;;2.67;2.47;;;;;;;15.79;41.58;95412.88;4989369;28;20498;-57
2023/01/05 10:04:46;;;;;;;1.13;1.13;;;;;;;15.70;41.39;95411.88;4988878;28;20455;-58
2023/01/05 10:07:22;;;;;;;3.00;2.57;;;;;;;15.67;41.00;95407.13;4989056;28;20438;-56
2023/01/05 10:09:52;;;;;;;5.67;3.03;;;;;;;15.81;42.08;95414.19;4988782;28;20441;-58
2023/01/05 10:15:19;;;;;;;2.77;1.53;;;;;;;16.83;40.68;95397.13;4974325;28;20536;-58
2023/01/05 10:17:47;;;;;;;7.27;4.87;;;;;;;16.87;40.91;95395.53;4989084;28;20477;-58
2023/01/05 10:20:34;;;;;;;1.07;1.03;;;;;;;17.12;40.24;95395.22;4988884;28;20846;-59
2023/01/05 10:23:14;;;;;;;0.80;0.80;;;;;;;16.51;39.96;95399.63;4988880;28;21205;-58
2023/01/05 10:25:53;;;;;;;1.40;1.33;;;;;;;16.77;40.24;95402.78;4988346;28;20460;-57
2023/01/05 10:28:34;;;;;;;1.63;1.53;;;;;;;16.37;40.07;95390.69;4989202;28;20481;-57
2023/01/05 10:31:24;;;;;;;3.73;3.30;;;;;;;16.53;40.32;95371.00;4988443;28;20481;-59
2023/01/05 10:34:18;;;;;;;1.03;1.03;;;;;;;15.99;40.33;95378.34;4988879;28;20849;-55
2023/01/05 10:36:54;;;;;;;0.83;0.83;;;;;;;15.72;40.88;95392.03;4977188;28;20485;-56
2023/01/05 10:39:54;;;;;;;1.87;1.77;;;;;;;16.31;40.48;95373.31;4988359;28;20441;-56
2023/01/05 10:42:50;;;;;;;1.33;1.23;;;;;;;16.50;39.95;95374.22;4988759;28;20891;-57
2023/01/05 10:45:19;;;;;;;0.97;0.87;;;;;;;16.86;39.27;95359.50;4988192;28;20446;-55
2023/01/05 10:47:48;;;;;;;0.77;0.77;;;;;;;17.14;39.28;95355.19;4988929;28;20454;-58
2023/01/05 10:50:34;;;;;;;2.30;1.27;;;;;;;17.60;38.93;95336.84;4988248;28;20450;-56
2023/01/05 10:53:32;;;;;;;8.63;3.70;;;;;;;17.29;39.32;95336.47;4976210;28;20437;-57
2023/01/05 10:56:04;;;;;;;1.60;1.50;;;;;;;17.15;38.34;95336.38;4980519;28;20940;-57
2023/01/05 10:58:33;;;;;;;12.63;1.73;;;;;;;16.68;39.20;95336.44;4988923;28;20500;-56
2023/01/05 11:01:04;;;;;;;2.13;1.90;;;;;;;16.86;39.30;95335.69;4988272;28;20437;-55
2023/01/05 11:03:44;;;;;;;2.70;2.50;;;;;;;17.06;39.24;95324.84;4988978;28;21030;-56
2023/01/05 11:06:33;;;;;;;2.07;1.27;;;;;;;17.28;38.32;95332.22;4988028;28;20446;-60
2023/01/05 11:09:14;;;;;;;2.27;1.23;;;;;;;17.74;38.11;95321.78;4991882;28;20434;-56
2023/01/05 11:12:01;;;;;;;5.27;4.43;;;;;;;18.07;37.89;95320.69;4992191;28;20448;-61
2023/01/05 11:14:33;;;;;;;13.77;2.80;;;;;;;18.13;37.27;95312.38;4991852;28;20444;-60
2023/01/05 11:17:03;;;;;;;1.43;1.33;;;;;;;16.95;37.87;95315.47;4992113;28;20491;-59
2023/01/05 11:19:34;;;;;;;0.40;0.37;;;;;;;16.86;38.95;95322.47;4991902;28;20445;-58
2023/01/05 11:22:01;;;;;;;1.37;1.37;;;;;;;16.78;38.57;95320.47;4991859;28;20781;-59
2023/01/05 11:24:34;;;;;;;2.20;1.33;;;;;;;16.40;39.24;95313.47;4991878;28;20836;-58
2023/01/05 11:27:04;;;;;;;1.83;1.73;;;;;;;15.91;39.89;95315.53;4979438;28;20979;-59
2023/01/05 11:29:31;;;;;;;1.53;1.43;;;;;;;16.20;39.19;95313.66;4990917;28;20543;-56
2023/01/05 11:32:04;;;;;;;1.10;1.03;;;;;;;17.53;38.50;95300.13;4991622;28;20544;-54
2023/01/05 11:34:47;;;;;;;1.07;1.00;;;;;;;16.83;38.26;95307.16;4991060;28;20457;-58
2023/01/05 11:37:26;;;;;;;0.47;0.47;;;;;;;16.64;38.78;95298.38;4991581;28;21085;-55
2023/01/05 11:39:57;;;;;;;1.03;1.03;;;;;;;16.78;38.36;95291.34;4991050;28;20464;-57
2023/01/05 11:42:23;;;;;;;4.77;2.03;;;;;;;16.72;38.25;95295.13;4991980;28;20524;-59
2023/01/05 11:45:06;;;;;;;1.20;1.10;;;;;;;17.19;38.10;95279.13;4990925;28;20950;-54
2023/01/05 11:47:33;;;;;;;1.27;1.17;;;;;;;17.41;37.87;95291.00;4991637;28;20450;-55
2023/01/05 11:50:12;;;;;;;2.13;1.93;;;;;;;17.18;37.65;95282.84;4990910;28;20453;-58
2023/01/05 11:52:44;;;;;;;1.77;1.30;;;;;;;17.28;37.70;95281.13;4991526;28;20473;-57
2023/01/05 11:55:18;;;;;;;0.83;0.83;;;;;;;17.45;37.64;95276.88;4990999;28;20553;-58
2023/01/05 11:57:47;;;;;;;6.40;2.20;;;;;;;17.88;36.43;95265.06;4991240;28;20539;-57
2023/01/05 12:00:22;;;;;;;2.40;2.03;;;;;;;17.80;36.51;95263.09;4990381;28;20478;-59
2023/01/05 12:03:20;;;;;;;1.40;0.97;;;;;;;18.95;35.18;95261.97;4991629;28;20448;-57
2023/01/05 12:05:53;;;;;;;2.83;1.43;;;;;;;20.02;33.29;95248.53;4990276;28;20461;-57
2023/01/05 12:08:26;;;;;;;5.47;2.50;;;;;;;19.81;33.14;95263.44;4991052;28;20441;-59
2023/01/05 12:11:14;;;;;;;1.03;1.03;;;;;;;19.82;33.15;95257.03;4977969;28;20858;-57
2023/01/05 12:13:59;;;;;;;0.87;0.87;;;;;;;20.12;32.86;95253.59;4991038;28;20817;-58
2023/01/05 12:16:32;;;;;;;4.50;1.93;;;;;;;20.32;31.83;95247.78;4990474;28;20454;-56
2023/01/05 12:19:04;;;;;;;0.93;0.90;;;;;;;20.43;32.92;95243.75;4990807;28;20438;-55
2023/01/05 12:21:47;;;;;;;0.53;0.53;;;;;;;20.86;32.65;95252.63;4990607;28;20446;-57
2023/01/05 12:24:40;;;;;;;1.03;0.90;;;;;;;22.07;30.15;95238.19;4990922;28;20961;-57
2023/01/05 12:27:36;;;;;;;2.43;1.63;;;;;;;22.06;30.29;95225.94;4990683;28;20495;-59